createdAt,value
2018-12-31T00:00:02.370Z,26.31
2018-12-31T00:01:11.236Z,26.35
2018-12-31T00:02:12.756Z,26.30
2018-12-31T00:03:14.191Z,26.21
2018-12-31T00:04:15.671Z,26.29
2018-12-31T00:05:17.005Z,26.30
2018-12-31T00:06:20.226Z,26.25
2018-12-31T00:07:21.454Z,26.21
2018-12-31T00:08:25.220Z,26.30
2018-12-31T00:09:26.454Z,26.26
2018-12-31T00:10:27.588Z,26.31
2018-12-31T00:11:31.060Z,26.33
2018-12-31T00:12:32.302Z,26.33
2018-12-31T00:13:34.765Z,26.37
2018-12-31T00:14:38.525Z,26.28
2018-12-31T00:15:41.996Z,26.30
2018-12-31T00:16:43.985Z,26.23
2018-12-31T00:17:46.307Z,26.21
2018-12-31T00:18:48.877Z,26.18
2018-12-31T00:19:51.572Z,26.19
2018-12-31T00:20:55.002Z,26.21
2018-12-31T00:21:57.341Z,26.24
2018-12-31T00:22:58.864Z,26.21
2018-12-31T00:23:59.980Z,26.12
2018-12-31T00:25:01.107Z,26.17
2018-12-31T00:26:04.280Z,26.18
2018-12-31T00:27:06.636Z,26.18
2018-12-31T00:28:09.669Z,26.20
2018-12-31T00:29:10.927Z,26.22
2018-12-31T00:30:12.458Z,26.22
2018-12-31T00:31:14.685Z,26.28
2018-12-31T00:32:15.915Z,26.13
2018-12-31T00:33:17.179Z,26.14
2018-12-31T00:34:18.410Z,26.19
2018-12-31T00:35:19.969Z,26.20
2018-12-31T00:36:21.215Z,26.19
2018-12-31T00:37:25.747Z,26.19
2018-12-31T00:38:26.876Z,26.17
2018-12-31T00:39:36.980Z,26.17
2018-12-31T00:40:39.227Z,26.17
2018-12-31T00:41:40.756Z,26.12
2018-12-31T00:42:43.051Z,26.16
2018-12-31T00:43:46.083Z,26.15
2018-12-31T00:44:47.316Z,26.12
2018-12-31T00:45:48.552Z,26.10
2018-12-31T00:46:49.797Z,26.12
2018-12-31T00:47:51.042Z,26.09
2018-12-31T00:48:52.170Z,26.11
2018-12-31T00:49:53.416Z,26.07
2018-12-31T00:50:54.551Z,26.04
2018-12-31T00:51:55.716Z,26.12
2018-12-31T00:52:58.676Z,26.03
2018-12-31T00:53:59.893Z,26.09
2018-12-31T00:55:04.017Z,26.07
2018-12-31T00:56:05.240Z,26.12
2018-12-31T00:57:06.789Z,26.08
2018-12-31T00:58:09.377Z,26.12
2018-12-31T00:59:10.612Z,26.16
2018-12-31T01:00:11.841Z,26.10
2018-12-31T01:01:15.109Z,26.08
2018-12-31T01:02:16.627Z,26.07
2018-12-31T01:03:17.843Z,26.10
2018-12-31T01:04:18.963Z,25.99
2018-12-31T01:05:20.197Z,26.05
2018-12-31T01:06:23.127Z,26.01
2018-12-31T01:07:24.652Z,26.07
2018-12-31T01:08:27.765Z,26.05
2018-12-31T01:09:30.786Z,26.08
2018-12-31T01:10:32.026Z,26.05
2018-12-31T01:11:33.465Z,26.06
2018-12-31T01:12:36.503Z,26.03
2018-12-31T01:13:37.752Z,26.02
2018-12-31T01:14:38.981Z,26.04
2018-12-31T01:15:40.206Z,26.03
2018-12-31T01:16:41.662Z,26.04
2018-12-31T01:17:43.185Z,26.06
2018-12-31T01:18:44.316Z,25.97
2018-12-31T01:19:45.732Z,26.04
2018-12-31T01:20:46.984Z,25.99
2018-12-31T01:21:51.587Z,25.97
2018-12-31T01:22:53.249Z,25.95
2018-12-31T01:23:55.665Z,25.98
2018-12-31T01:24:57.106Z,26.01
2018-12-31T01:25:58.400Z,25.99
2018-12-31T01:26:59.646Z,25.96
2018-12-31T01:28:00.887Z,25.98
2018-12-31T01:29:03.306Z,25.96
2018-12-31T01:30:05.855Z,25.97
2018-12-31T01:31:08.085Z,25.98
2018-12-31T01:32:09.322Z,26.02
2018-12-31T01:33:21.065Z,26.02
2018-12-31T01:34:24.101Z,26.05
2018-12-31T01:35:25.328Z,26.00
2018-12-31T01:36:26.563Z,25.93
2018-12-31T01:37:27.794Z,25.94
2018-12-31T01:38:29.288Z,25.94
2018-12-31T01:39:32.718Z,26.00
2018-12-31T01:40:34.027Z,25.92
2018-12-31T01:41:35.249Z,25.80
2018-12-31T01:42:37.921Z,25.92
2018-12-31T01:43:42.199Z,25.99
2018-12-31T01:44:43.320Z,25.96
2018-12-31T01:45:44.542Z,25.90
2018-12-31T01:46:45.782Z,25.85
2018-12-31T01:47:47.005Z,25.90
2018-12-31T01:48:49.811Z,25.94
2018-12-31T01:49:51.054Z,25.92
2018-12-31T01:50:52.277Z,26.02
2018-12-31T01:51:54.406Z,25.90
2018-12-31T01:52:55.626Z,25.95
2018-12-31T01:53:56.851Z,25.99
2018-12-31T01:54:59.319Z,25.94
2018-12-31T01:56:00.762Z,25.95
2018-12-31T01:57:02.047Z,25.96
2018-12-31T01:58:03.447Z,25.83
2018-12-31T01:59:06.594Z,25.95
2018-12-31T02:00:10.673Z,26.02
2018-12-31T02:01:12.226Z,25.96
2018-12-31T02:02:13.462Z,25.89
2018-12-31T02:03:14.685Z,25.89
2018-12-31T02:04:16.031Z,25.87
2018-12-31T02:05:18.467Z,25.85
2018-12-31T02:06:19.701Z,25.84
2018-12-31T02:07:20.926Z,25.78
2018-12-31T02:08:23.983Z,25.84
2018-12-31T02:09:25.225Z,25.74
2018-12-31T02:10:27.245Z,25.89
2018-12-31T02:11:28.483Z,25.79
2018-12-31T02:12:31.894Z,25.81
2018-12-31T02:13:34.223Z,25.83
2018-12-31T02:14:35.477Z,25.81
2018-12-31T02:15:38.909Z,25.79
2018-12-31T02:16:40.130Z,25.71
2018-12-31T02:17:41.354Z,25.74
2018-12-31T02:18:42.482Z,25.80
2018-12-31T02:19:45.987Z,25.79
2018-12-31T02:20:47.216Z,25.84
2018-12-31T02:21:48.347Z,25.84
2018-12-31T02:22:49.571Z,25.88
2018-12-31T02:23:52.351Z,25.85
2018-12-31T02:24:53.583Z,25.87
2018-12-31T02:25:54.818Z,25.88
2018-12-31T02:26:58.084Z,25.92
2018-12-31T02:27:59.534Z,25.88
2018-12-31T02:29:05.477Z,25.90
2018-12-31T02:30:11.372Z,25.89
2018-12-31T02:31:12.603Z,25.88
2018-12-31T02:32:16.488Z,25.77
2018-12-31T02:33:17.617Z,25.72
2018-12-31T02:34:18.842Z,25.67
2018-12-31T02:35:20.086Z,25.64
2018-12-31T02:36:21.327Z,25.67
2018-12-31T02:37:22.454Z,25.74
2018-12-31T02:38:23.668Z,25.80
2018-12-31T02:39:25.196Z,25.90
2018-12-31T02:40:28.580Z,25.81
2018-12-31T02:41:29.801Z,25.73
2018-12-31T02:42:31.023Z,25.83
2018-12-31T02:43:32.463Z,25.78
2018-12-31T02:44:33.736Z,25.74
2018-12-31T02:45:34.997Z,25.81
2018-12-31T02:46:36.834Z,25.85
2018-12-31T02:47:38.068Z,25.79
2018-12-31T02:48:39.290Z,25.76
2018-12-31T02:49:42.323Z,25.74
2018-12-31T02:50:43.498Z,25.70
2018-12-31T02:51:46.548Z,25.76
2018-12-31T02:52:49.610Z,25.64
2018-12-31T02:53:54.858Z,25.68
2018-12-31T02:54:59.025Z,25.78
2018-12-31T02:56:00.262Z,25.84
2018-12-31T02:57:01.391Z,25.79
2018-12-31T02:58:05.432Z,25.72
2018-12-31T02:59:06.896Z,25.64
2018-12-31T03:00:08.121Z,25.67
2018-12-31T03:01:11.909Z,25.76
2018-12-31T03:02:15.134Z,25.69
2018-12-31T03:03:17.359Z,25.70
2018-12-31T03:04:18.593Z,25.75
2018-12-31T03:05:23.388Z,25.77
2018-12-31T03:06:28.234Z,25.66
2018-12-31T03:07:29.472Z,25.71
2018-12-31T03:08:31.225Z,25.66
2018-12-31T03:09:32.460Z,25.63
2018-12-31T03:10:35.068Z,25.68
2018-12-31T03:11:37.548Z,25.70
2018-12-31T03:12:39.905Z,25.70
2018-12-31T03:13:41.227Z,25.61
2018-12-31T03:14:46.235Z,25.63
2018-12-31T03:15:48.652Z,25.66
2018-12-31T03:16:51.168Z,25.66
2018-12-31T03:17:56.666Z,25.71
2018-12-31T03:18:59.324Z,25.65
2018-12-31T03:20:00.669Z,25.56
2018-12-31T03:21:06.806Z,25.59
2018-12-31T03:22:07.941Z,25.67
2018-12-31T03:23:09.082Z,25.63
2018-12-31T03:24:10.320Z,25.65
2018-12-31T03:25:11.548Z,25.66
2018-12-31T03:26:15.311Z,25.58
2018-12-31T03:27:19.614Z,25.60
2018-12-31T03:28:23.641Z,25.66
2018-12-31T03:29:24.896Z,25.59
2018-12-31T03:30:26.349Z,25.64
2018-12-31T03:31:27.602Z,25.67
2018-12-31T03:32:28.819Z,25.45
2018-12-31T03:33:30.043Z,25.47
2018-12-31T03:34:32.980Z,25.44
2018-12-31T03:35:34.408Z,25.50
2018-12-31T03:36:35.631Z,25.52
2018-12-31T03:37:36.870Z,25.58
2018-12-31T03:38:39.347Z,25.53
2018-12-31T03:39:40.585Z,25.44
2018-12-31T03:40:43.507Z,25.54
2018-12-31T03:41:44.740Z,25.49
2018-12-31T03:42:46.450Z,25.54
2018-12-31T03:43:51.082Z,25.51
2018-12-31T03:44:53.792Z,25.53
2018-12-31T03:45:55.021Z,25.53
2018-12-31T03:46:57.943Z,25.59
2018-12-31T03:47:59.175Z,25.58
2018-12-31T03:49:02.247Z,25.59
2018-12-31T03:50:06.617Z,25.49
2018-12-31T03:51:09.599Z,25.45
2018-12-31T03:52:12.031Z,25.50
2018-12-31T03:53:15.498Z,25.52
2018-12-31T03:54:16.927Z,25.47
2018-12-31T03:55:24.250Z,25.50
2018-12-31T03:56:26.612Z,25.37
2018-12-31T03:57:28.049Z,25.45
2018-12-31T03:58:29.477Z,25.42
2018-12-31T03:59:34.314Z,25.48
2018-12-31T04:00:39.735Z,25.47
2018-12-31T04:01:42.759Z,25.51
2018-12-31T04:02:47.003Z,25.37
2018-12-31T04:03:48.538Z,25.40
2018-12-31T04:04:53.037Z,25.43
2018-12-31T04:05:54.177Z,25.44
2018-12-31T04:06:55.292Z,25.51
2018-12-31T04:07:56.523Z,25.56
2018-12-31T04:08:58.042Z,25.45
2018-12-31T04:09:59.552Z,25.45
2018-12-31T04:11:01.126Z,25.45
2018-12-31T04:12:06.253Z,25.40
2018-12-31T04:13:07.505Z,25.39
2018-12-31T04:14:08.757Z,25.47
2018-12-31T04:15:11.220Z,25.39
2018-12-31T04:16:12.351Z,25.45
2018-12-31T04:17:13.583Z,25.46
2018-12-31T04:18:18.415Z,25.51
2018-12-31T04:19:19.837Z,25.36
2018-12-31T04:20:20.992Z,25.40
2018-12-31T04:21:23.583Z,25.49
2018-12-31T04:22:26.405Z,25.48
2018-12-31T04:23:28.723Z,25.36
2018-12-31T04:24:30.191Z,25.37
2018-12-31T04:25:32.669Z,25.32
2018-12-31T04:26:34.272Z,25.38
2018-12-31T04:27:36.532Z,25.37
2018-12-31T04:28:39.792Z,25.40
2018-12-31T04:29:41.133Z,25.30
2018-12-31T04:30:42.580Z,25.24
2018-12-31T04:31:44.177Z,25.24
2018-12-31T04:32:45.303Z,25.35
2018-12-31T04:33:48.319Z,25.37
2018-12-31T04:34:49.568Z,25.33
2018-12-31T04:35:52.022Z,25.30
2018-12-31T04:36:57.039Z,25.30
2018-12-31T04:37:58.264Z,25.31
2018-12-31T04:39:00.298Z,25.31
2018-12-31T04:40:01.539Z,25.33
2018-12-31T04:41:04.667Z,25.35
2018-12-31T04:42:06.535Z,25.32
2018-12-31T04:43:08.993Z,25.20
2018-12-31T04:44:12.029Z,25.36
2018-12-31T04:45:13.365Z,25.32
2018-12-31T04:46:15.795Z,25.33
2018-12-31T04:47:17.011Z,25.33
2018-12-31T04:48:18.151Z,25.32
2018-12-31T04:49:21.180Z,25.38
2018-12-31T04:50:22.715Z,25.33
2018-12-31T04:51:31.326Z,25.35
2018-12-31T04:52:33.785Z,25.32
2018-12-31T04:53:34.951Z,25.33
2018-12-31T04:54:37.344Z,25.30
2018-12-31T04:55:44.489Z,25.36
2018-12-31T04:56:46.146Z,25.25
2018-12-31T04:57:47.401Z,25.25
2018-12-31T04:58:48.617Z,25.33
2018-12-31T04:59:53.357Z,25.29
2018-12-31T05:00:56.820Z,25.34
2018-12-31T05:01:58.063Z,25.34
2018-12-31T05:02:59.308Z,25.33
2018-12-31T05:04:00.536Z,25.30
2018-12-31T05:05:09.505Z,25.26
2018-12-31T05:06:10.738Z,25.31
2018-12-31T05:07:11.855Z,25.37
2018-12-31T05:08:13.292Z,25.31
2018-12-31T05:09:15.553Z,25.35
2018-12-31T05:10:20.329Z,25.29
2018-12-31T05:11:21.576Z,25.27
2018-12-31T05:12:22.999Z,25.32
2018-12-31T05:13:28.042Z,25.35
2018-12-31T05:14:31.310Z,25.34
2018-12-31T05:15:32.530Z,25.32
2018-12-31T05:16:34.826Z,25.32
2018-12-31T05:17:36.100Z,25.29
2018-12-31T05:18:38.868Z,25.29
2018-12-31T05:19:41.965Z,25.26
2018-12-31T05:20:46.233Z,25.24
2018-12-31T05:21:47.691Z,25.29
2018-12-31T05:22:49.183Z,25.29
2018-12-31T05:23:50.452Z,25.21
2018-12-31T05:24:51.677Z,25.22
2018-12-31T05:25:56.882Z,25.22
2018-12-31T05:27:00.036Z,25.30
2018-12-31T05:28:01.161Z,25.25
2018-12-31T05:29:02.381Z,25.22
2018-12-31T05:30:04.016Z,25.24
2018-12-31T05:31:08.364Z,25.25
2018-12-31T05:32:09.724Z,25.10
2018-12-31T05:33:15.477Z,25.21
2018-12-31T05:34:16.691Z,25.23
2018-12-31T05:35:17.920Z,25.20
2018-12-31T05:36:19.265Z,25.23
2018-12-31T05:37:20.509Z,25.25
2018-12-31T05:38:21.734Z,25.18
2018-12-31T05:39:23.211Z,25.20
2018-12-31T05:40:26.253Z,25.24
2018-12-31T05:41:27.482Z,25.24
2018-12-31T05:42:28.641Z,25.26
2018-12-31T05:43:29.862Z,25.17
2018-12-31T05:44:31.119Z,25.25
2018-12-31T05:45:34.118Z,25.29
2018-12-31T05:46:35.333Z,25.22
2018-12-31T05:47:38.473Z,25.15
2018-12-31T05:48:39.774Z,25.13
2018-12-31T05:49:40.998Z,25.19
2018-12-31T05:50:42.242Z,25.23
2018-12-31T05:51:44.275Z,25.20
2018-12-31T05:52:45.817Z,25.24
2018-12-31T05:53:47.055Z,25.26
2018-12-31T05:54:49.311Z,25.20
2018-12-31T05:55:50.536Z,25.15
2018-12-31T05:56:51.753Z,25.27
2018-12-31T05:57:53.104Z,25.25
2018-12-31T05:58:56.641Z,25.21
2018-12-31T05:59:59.362Z,25.24
2018-12-31T06:01:00.643Z,25.26
2018-12-31T06:02:01.970Z,25.20
2018-12-31T06:03:03.210Z,25.19
2018-12-31T06:04:12.149Z,25.16
2018-12-31T06:05:13.375Z,25.18
2018-12-31T06:06:14.604Z,25.10
2018-12-31T06:07:16.748Z,25.14
2018-12-31T06:08:17.887Z,25.09
2018-12-31T06:09:22.187Z,25.16
2018-12-31T06:10:23.409Z,25.20
2018-12-31T06:11:24.641Z,25.21
2018-12-31T06:12:27.679Z,25.14
2018-12-31T06:13:29.043Z,25.18
2018-12-31T06:14:30.274Z,25.07
2018-12-31T06:15:32.918Z,25.14
2018-12-31T06:16:36.894Z,25.22
2018-12-31T06:17:48.304Z,25.20
2018-12-31T06:18:49.739Z,25.18
2018-12-31T06:19:51.023Z,25.03
2018-12-31T06:20:54.056Z,25.07
2018-12-31T06:21:55.277Z,25.10
2018-12-31T06:22:56.527Z,25.06
2018-12-31T06:24:00.554Z,25.17
2018-12-31T06:25:03.197Z,25.13
2018-12-31T06:26:06.238Z,25.08
2018-12-31T06:27:07.658Z,25.10
2018-12-31T06:28:10.718Z,25.06
2018-12-31T06:29:11.959Z,25.03
2018-12-31T06:30:13.194Z,25.02
2018-12-31T06:31:14.519Z,25.15
2018-12-31T06:32:18.920Z,25.06
2018-12-31T06:33:20.065Z,24.96
2018-12-31T06:34:22.847Z,25.09
2018-12-31T06:35:25.601Z,25.08
2018-12-31T06:36:27.042Z,25.03
2018-12-31T06:37:32.132Z,25.08
2018-12-31T06:38:33.354Z,25.01
2018-12-31T06:39:34.494Z,25.01
2018-12-31T06:40:35.618Z,24.83
2018-12-31T06:41:36.860Z,24.94
2018-12-31T06:42:38.522Z,24.98
2018-12-31T06:43:44.363Z,25.06
2018-12-31T06:44:45.885Z,25.02
2018-12-31T06:45:47.107Z,25.03
2018-12-31T06:46:48.339Z,25.09
2018-12-31T06:47:50.312Z,25.01
2018-12-31T06:48:51.542Z,25.08
2018-12-31T06:49:52.680Z,25.09
2018-12-31T06:50:57.189Z,25.05
2018-12-31T06:51:58.405Z,25.09
2018-12-31T06:53:02.966Z,25.05
2018-12-31T06:54:08.377Z,25.04
2018-12-31T06:55:10.447Z,25.12
2018-12-31T06:56:13.059Z,25.17
2018-12-31T06:57:15.542Z,25.08
2018-12-31T06:58:19.613Z,25.11
2018-12-31T07:00:44.071Z,25.10
2018-12-31T07:01:45.403Z,25.10
2018-12-31T07:02:46.677Z,25.15
2018-12-31T07:03:49.223Z,25.06
2018-12-31T07:04:54.447Z,25.05
2018-12-31T07:05:55.602Z,25.09
2018-12-31T07:06:58.849Z,25.09
2018-12-31T07:08:00.090Z,25.10
2018-12-31T07:09:02.289Z,25.14
2018-12-31T07:10:07.282Z,25.08
2018-12-31T07:11:08.526Z,25.12
2018-12-31T07:12:10.219Z,25.10
2018-12-31T07:13:12.618Z,25.13
2018-12-31T07:14:15.644Z,24.97
2018-12-31T07:15:20.495Z,25.03
2018-12-31T07:16:22.014Z,25.06
2018-12-31T07:17:24.454Z,24.97
2018-12-31T07:18:27.846Z,25.03
2018-12-31T07:19:30.003Z,25.00
2018-12-31T07:20:35.103Z,24.99
2018-12-31T07:21:36.848Z,24.99
2018-12-31T07:24:00.154Z,25.03
2018-12-31T07:25:03.082Z,25.06
2018-12-31T07:26:09.096Z,25.13
2018-12-31T07:27:10.436Z,25.05
2018-12-31T07:28:11.662Z,25.10
2018-12-31T07:29:12.792Z,24.93
2018-12-31T07:30:26.996Z,25.03
2018-12-31T07:31:28.267Z,25.10
2018-12-31T07:32:29.520Z,25.13
2018-12-31T07:33:33.008Z,25.12
2018-12-31T07:34:34.628Z,25.08
2018-12-31T07:35:36.047Z,25.11
2018-12-31T07:36:38.497Z,24.97
2018-12-31T07:37:39.705Z,24.91
2018-12-31T07:38:40.812Z,24.84
2018-12-31T07:39:41.931Z,24.81
2018-12-31T07:40:43.046Z,24.88
2018-12-31T07:41:44.164Z,24.85
2018-12-31T07:42:45.385Z,24.85
2018-12-31T07:43:46.488Z,24.84
2018-12-31T07:44:47.604Z,24.84
2018-12-31T07:45:48.708Z,24.78
2018-12-31T07:46:49.819Z,24.68
2018-12-31T07:47:50.991Z,24.69
2018-12-31T07:48:52.229Z,24.74
2018-12-31T07:49:53.337Z,24.76
2018-12-31T07:50:54.539Z,24.67
2018-12-31T07:51:55.745Z,24.60
2018-12-31T07:52:56.879Z,24.61
2018-12-31T07:53:57.995Z,24.57
2018-12-31T07:54:59.202Z,24.55
2018-12-31T07:56:00.309Z,24.57
2018-12-31T07:57:01.415Z,24.57
2018-12-31T07:58:02.835Z,24.51
2018-12-31T07:59:04.042Z,24.54
2018-12-31T08:00:06.853Z,24.47
2018-12-31T08:01:07.962Z,24.48
2018-12-31T08:02:09.171Z,24.50
2018-12-31T08:03:10.305Z,24.61
2018-12-31T08:04:11.512Z,24.54
2018-12-31T08:05:12.621Z,24.57
2018-12-31T08:06:13.729Z,24.72
2018-12-31T08:07:14.853Z,24.65
2018-12-31T08:08:16.153Z,24.62
2018-12-31T08:09:17.360Z,24.60
2018-12-31T08:10:18.569Z,24.67
2018-12-31T08:11:19.676Z,24.71
2018-12-31T08:12:20.784Z,24.71
2018-12-31T08:13:21.906Z,24.74
2018-12-31T08:14:23.023Z,24.71
2018-12-31T08:15:24.133Z,24.74
2018-12-31T08:16:25.234Z,24.75
2018-12-31T08:17:26.421Z,24.77
2018-12-31T08:18:27.668Z,24.78
2018-12-31T08:19:28.775Z,24.74
2018-12-31T08:20:29.885Z,24.78
2018-12-31T08:21:30.987Z,24.85
2018-12-31T08:22:32.095Z,24.99
2018-12-31T08:23:33.216Z,24.94
2018-12-31T08:24:34.440Z,24.88
2018-12-31T08:25:35.550Z,24.85
2018-12-31T08:26:36.656Z,24.88
2018-12-31T08:27:37.873Z,24.94
2018-12-31T08:28:38.996Z,25.00
2018-12-31T08:29:40.105Z,25.00
2018-12-31T08:30:41.225Z,25.05
2018-12-31T08:31:42.340Z,25.05
2018-12-31T08:32:43.483Z,25.08
2018-12-31T08:33:44.728Z,25.11
2018-12-31T08:34:45.839Z,25.12
2018-12-31T08:35:47.048Z,25.19
2018-12-31T08:36:48.161Z,25.13
2018-12-31T08:37:49.368Z,25.09
2018-12-31T08:38:50.608Z,25.14
2018-12-31T08:39:51.714Z,25.20
2018-12-31T08:40:52.825Z,25.13
2018-12-31T08:41:54.033Z,25.21
2018-12-31T08:42:55.583Z,25.20
2018-12-31T08:43:57.068Z,25.18
2018-12-31T08:44:58.178Z,25.26
2018-12-31T08:45:59.282Z,25.21
2018-12-31T08:47:00.392Z,25.19
2018-12-31T08:48:01.669Z,25.11
2018-12-31T08:49:02.824Z,25.18
2018-12-31T08:50:05.229Z,25.15
2018-12-31T08:51:06.352Z,25.18
2018-12-31T08:52:07.559Z,25.17
2018-12-31T08:53:08.670Z,25.14
2018-12-31T08:54:09.890Z,25.22
2018-12-31T08:55:10.996Z,25.22
2018-12-31T08:56:12.106Z,25.12
2018-12-31T08:57:13.317Z,25.28
2018-12-31T08:58:14.527Z,25.29
2018-12-31T08:59:15.931Z,25.38
2018-12-31T09:00:17.040Z,25.26
2018-12-31T09:01:18.250Z,25.29
2018-12-31T09:02:19.460Z,25.31
2018-12-31T09:03:20.564Z,25.24
2018-12-31T09:04:21.688Z,25.24
2018-12-31T09:05:22.917Z,25.28
2018-12-31T09:06:24.027Z,25.34
2018-12-31T09:07:25.142Z,25.32
2018-12-31T09:08:26.256Z,25.46
2018-12-31T09:09:27.590Z,25.44
2018-12-31T09:10:28.708Z,25.34
2018-12-31T09:11:29.814Z,25.33
2018-12-31T09:12:31.024Z,25.21
2018-12-31T09:13:32.139Z,25.29
2018-12-31T09:14:33.540Z,25.36
2018-12-31T09:15:34.648Z,25.35
2018-12-31T09:16:35.756Z,25.38
2018-12-31T09:17:36.871Z,25.43
2018-12-31T09:18:37.975Z,25.49
2018-12-31T09:19:39.126Z,25.56
2018-12-31T09:20:40.232Z,25.57
2018-12-31T09:21:41.350Z,25.60
2018-12-31T09:22:42.463Z,25.60
2018-12-31T09:23:43.601Z,25.64
2018-12-31T09:24:44.921Z,25.69
2018-12-31T09:25:46.132Z,25.64
2018-12-31T09:26:47.242Z,25.46
2018-12-31T09:27:48.358Z,25.48
2018-12-31T09:28:49.472Z,25.52
2018-12-31T09:29:50.622Z,25.50
2018-12-31T09:30:51.740Z,25.54
2018-12-31T09:31:52.862Z,25.57
2018-12-31T09:32:54.069Z,25.64
2018-12-31T09:33:55.180Z,25.65
2018-12-31T09:34:56.417Z,25.65
2018-12-31T09:35:57.524Z,25.62
2018-12-31T09:36:58.635Z,25.64
2018-12-31T09:37:59.750Z,25.58
2018-12-31T09:39:00.866Z,25.61
2018-12-31T09:40:02.271Z,25.72
2018-12-31T09:41:03.485Z,25.81
2018-12-31T09:42:04.592Z,25.81
2018-12-31T09:43:05.703Z,25.81
2018-12-31T09:44:06.810Z,25.74
2018-12-31T09:45:08.111Z,25.70
2018-12-31T09:46:09.216Z,25.69
2018-12-31T09:47:10.345Z,25.66
2018-12-31T09:48:11.468Z,25.76
2018-12-31T09:49:12.582Z,25.65
2018-12-31T09:50:13.806Z,25.73
2018-12-31T09:51:14.909Z,25.69
2018-12-31T09:52:16.127Z,25.72
2018-12-31T09:53:17.240Z,25.75
2018-12-31T09:54:18.353Z,25.85
2018-12-31T09:55:19.578Z,25.85
2018-12-31T09:56:20.693Z,25.89
2018-12-31T09:57:21.901Z,25.86
2018-12-31T09:58:23.009Z,25.78
2018-12-31T09:59:24.249Z,25.86
2018-12-31T10:00:25.373Z,25.78
2018-12-31T10:01:26.587Z,25.79
2018-12-31T10:02:27.848Z,25.79
2018-12-31T10:03:29.775Z,25.86
2018-12-31T10:04:30.991Z,25.89
2018-12-31T10:05:32.234Z,25.79
2018-12-31T10:06:33.474Z,25.86
2018-12-31T10:07:34.602Z,25.80
2018-12-31T10:08:35.717Z,25.79
2018-12-31T10:09:36.856Z,25.80
2018-12-31T10:10:38.355Z,25.81
2018-12-31T10:11:39.467Z,25.86
2018-12-31T10:12:40.589Z,25.78
2018-12-31T10:13:43.310Z,25.80
2018-12-31T10:14:44.672Z,25.92
2018-12-31T10:15:46.347Z,25.78
2018-12-31T10:16:47.561Z,25.69
2018-12-31T10:17:48.786Z,25.61
2018-12-31T10:18:49.929Z,25.56
2018-12-31T10:19:51.168Z,25.54
2018-12-31T10:20:52.771Z,25.53
2018-12-31T10:21:53.991Z,25.46
2018-12-31T10:22:57.240Z,25.46
2018-12-31T10:23:58.469Z,25.42
2018-12-31T10:24:59.683Z,25.49
2018-12-31T10:26:03.459Z,25.50
2018-12-31T10:27:04.646Z,25.50
2018-12-31T10:28:06.008Z,25.52
2018-12-31T10:29:07.433Z,25.50
2018-12-31T10:30:08.645Z,25.49
2018-12-31T10:31:09.777Z,25.53
2018-12-31T10:32:10.888Z,25.56
2018-12-31T10:33:11.998Z,25.60
2018-12-31T10:34:13.215Z,25.67
2018-12-31T10:35:14.320Z,25.71
2018-12-31T10:36:15.443Z,25.78
2018-12-31T10:37:16.556Z,25.80
2018-12-31T10:38:17.780Z,25.77
2018-12-31T10:39:19.008Z,25.86
2018-12-31T10:40:20.109Z,25.79
2018-12-31T10:41:21.352Z,25.87
2018-12-31T10:42:22.464Z,25.90
2018-12-31T10:43:23.679Z,25.98
2018-12-31T10:44:24.782Z,26.03
2018-12-31T10:45:25.892Z,26.00
2018-12-31T10:46:27.133Z,26.02
2018-12-31T10:47:28.348Z,26.02
2018-12-31T10:48:29.564Z,26.02
2018-12-31T10:49:30.777Z,26.02
2018-12-31T10:50:31.909Z,26.04
2018-12-31T10:51:33.149Z,26.03
2018-12-31T10:52:34.258Z,26.09
2018-12-31T10:53:35.370Z,26.10
2018-12-31T10:54:36.480Z,26.09
2018-12-31T10:55:37.597Z,26.06
2018-12-31T10:56:38.832Z,26.08
2018-12-31T10:57:40.053Z,26.13
2018-12-31T10:58:41.160Z,26.08
2018-12-31T10:59:42.271Z,26.05
2018-12-31T11:00:43.503Z,26.02
2018-12-31T11:01:44.745Z,26.10
2018-12-31T11:02:45.868Z,26.07
2018-12-31T11:03:46.981Z,26.01
2018-12-31T11:04:48.095Z,26.09
2018-12-31T11:05:49.228Z,26.03
2018-12-31T11:06:50.569Z,25.99
2018-12-31T11:07:51.680Z,26.05
2018-12-31T11:08:52.790Z,26.08
2018-12-31T11:09:53.901Z,26.04
2018-12-31T11:10:55.118Z,25.99
2018-12-31T11:11:56.449Z,26.07
2018-12-31T11:12:57.657Z,26.01
2018-12-31T11:13:58.768Z,26.03
2018-12-31T11:14:59.878Z,26.07
2018-12-31T11:16:00.989Z,26.06
2018-12-31T11:17:02.331Z,26.05
2018-12-31T11:18:05.303Z,26.05
2018-12-31T11:19:06.482Z,26.05
2018-12-31T11:20:07.686Z,26.05
2018-12-31T11:21:08.800Z,26.02
2018-12-31T11:22:10.017Z,25.99
2018-12-31T11:23:11.125Z,26.04
2018-12-31T11:24:12.788Z,26.11
2018-12-31T11:25:14.068Z,26.07
2018-12-31T11:26:15.190Z,26.05
2018-12-31T11:27:16.497Z,26.08
2018-12-31T11:28:17.714Z,26.15
2018-12-31T11:29:18.839Z,26.16
2018-12-31T11:30:20.080Z,26.17
2018-12-31T11:31:21.300Z,26.13
2018-12-31T11:32:22.639Z,26.13
2018-12-31T11:33:23.852Z,26.15
2018-12-31T11:34:25.073Z,26.17
2018-12-31T11:35:26.282Z,26.13
2018-12-31T11:36:27.397Z,26.12
2018-12-31T11:37:34.661Z,26.18
2018-12-31T11:38:31.740Z,26.17
2018-12-31T11:39:32.972Z,26.16
2018-12-31T11:40:34.182Z,26.19
2018-12-31T11:41:35.392Z,26.19
2018-12-31T11:42:36.685Z,26.22
2018-12-31T11:43:37.939Z,26.15
2018-12-31T11:44:39.049Z,26.16
2018-12-31T11:45:40.255Z,26.22
2018-12-31T11:46:41.366Z,26.24
2018-12-31T11:47:42.492Z,26.21
2018-12-31T11:48:43.895Z,26.24
2018-12-31T11:49:45.005Z,26.25
2018-12-31T11:50:46.117Z,26.25
2018-12-31T11:51:47.329Z,26.31
2018-12-31T11:52:48.570Z,26.27
2018-12-31T11:53:49.685Z,26.29
2018-12-31T11:54:50.825Z,26.28
2018-12-31T11:55:52.054Z,26.31
2018-12-31T11:56:53.176Z,26.30
2018-12-31T11:57:54.395Z,26.28
2018-12-31T11:58:55.543Z,26.28
2018-12-31T11:59:56.636Z,26.23
2018-12-31T12:00:57.881Z,26.30
2018-12-31T12:01:58.993Z,26.29
2018-12-31T12:03:00.147Z,26.33
2018-12-31T12:04:01.282Z,26.32
2018-12-31T12:05:02.810Z,26.33
2018-12-31T12:06:07.095Z,26.37
2018-12-31T12:07:08.210Z,26.37
2018-12-31T12:08:09.443Z,26.32
2018-12-31T12:09:10.557Z,26.33
2018-12-31T12:10:11.775Z,26.33
2018-12-31T12:11:12.984Z,26.34
2018-12-31T12:12:14.235Z,26.38
2018-12-31T12:13:15.578Z,26.35
2018-12-31T12:14:16.888Z,26.37
2018-12-31T12:15:18.095Z,26.38
2018-12-31T12:16:19.231Z,26.36
2018-12-31T12:17:20.356Z,26.36
2018-12-31T12:18:21.715Z,26.31
2018-12-31T12:20:24.275Z,26.40
2018-12-31T12:21:25.381Z,26.40
2018-12-31T12:22:26.629Z,26.38
2018-12-31T12:23:27.982Z,26.33
2018-12-31T12:24:29.405Z,26.39
2018-12-31T12:25:30.613Z,26.39
2018-12-31T12:26:31.736Z,26.37
2018-12-31T12:27:32.967Z,26.27
2018-12-31T12:28:34.320Z,26.28
2018-12-31T12:29:35.451Z,26.29
2018-12-31T12:30:36.566Z,26.25
2018-12-31T12:31:37.784Z,26.27
2018-12-31T12:32:39.026Z,26.27
2018-12-31T12:33:40.458Z,26.27
2018-12-31T12:34:41.679Z,26.30
2018-12-31T12:35:43.093Z,26.26
2018-12-31T12:36:44.377Z,26.30
2018-12-31T12:37:48.605Z,26.38
2018-12-31T12:38:48.676Z,26.35
2018-12-31T12:39:49.801Z,26.30
2018-12-31T12:40:50.917Z,26.30
2018-12-31T12:41:52.125Z,26.27
2018-12-31T12:42:53.403Z,26.32
2018-12-31T12:43:54.519Z,26.42
2018-12-31T12:44:55.624Z,26.49
2018-12-31T12:45:56.757Z,26.45
2018-12-31T12:46:58.185Z,26.47
2018-12-31T12:47:59.396Z,26.52
2018-12-31T12:49:00.531Z,26.58
2018-12-31T12:50:03.629Z,26.42
2018-12-31T12:51:04.742Z,26.47
2018-12-31T12:52:05.848Z,26.48
2018-12-31T12:53:06.959Z,26.49
2018-12-31T12:54:08.455Z,26.51
2018-12-31T12:55:09.565Z,26.51
2018-12-31T12:56:10.672Z,26.46
2018-12-31T12:57:11.993Z,26.50
2018-12-31T12:58:13.128Z,26.52
2018-12-31T12:59:14.258Z,26.56
2018-12-31T13:00:15.370Z,26.67
2018-12-31T13:01:16.583Z,26.66
2018-12-31T13:02:17.781Z,26.61
2018-12-31T13:03:18.889Z,26.59
2018-12-31T13:04:20.288Z,26.60
2018-12-31T13:05:21.402Z,26.58
2018-12-31T13:06:22.511Z,26.53
2018-12-31T13:07:23.723Z,26.86
2018-12-31T13:08:25.235Z,27.18
2018-12-31T13:09:26.470Z,26.85
2018-12-31T13:10:27.701Z,26.66
2018-12-31T13:11:28.854Z,26.61
2018-12-31T13:12:30.103Z,26.55
2018-12-31T13:13:31.469Z,26.39
2018-12-31T13:14:34.165Z,26.29
2018-12-31T13:15:35.483Z,26.17
2018-12-31T13:16:36.597Z,26.05
2018-12-31T13:17:37.807Z,26.00
2018-12-31T13:18:38.921Z,25.92
2018-12-31T13:19:40.728Z,25.92